Time;durP1;ratioP1;P1;durP2;ratioP2;P2;SDS_P1;SDS_P2;PMS_P1;PMS_P2;Temp;Humidity;BMP_temperature;BMP_pressure;BME280_temperature;BME280_humidity;BME280_pressure;Samples;Min_cycle;Max_cycle;Signal;HPM_P1;HPM_P2
2023/08/21 00:00:40;;;;;;;;;;;;;;;17.80;70.45;100675.34;4962091;28;2587;-87
2023/08/21 00:03:31;;;;;;;;;;;;;;;17.81;70.14;100676.97;4965401;28;1771;-87
2023/08/21 00:06:24;;;;;;;;;;;;;;;17.80;70.06;100669.09;4977441;28;1873;-86
2023/08/21 00:09:16;;;;;;;;;;;;;;;17.81;70.41;100662.53;4972525;28;1555;-85
2023/08/21 00:12:07;;;;;;;;;;;;;;;17.80;70.11;100661.72;4973375;28;1584;-90
2023/08/21 00:14:59;;;;;;;;;;;;;;;17.81;70.07;100654.38;4961029;28;2548;-90
2023/08/21 00:17:52;;;;;;;;;;;;;;;17.79;70.24;100660.06;4960798;28;2255;-87
2023/08/21 00:20:44;;;;;;;;;;;;;;;17.78;70.13;100663.88;4957301;28;2563;-89
2023/08/21 00:23:36;;;;;;;;;;;;;;;17.77;70.17;100659.50;4958847;28;2754;-87
2023/08/21 00:26:27;;;;;;;;;;;;;;;17.78;70.19;100657.63;4956818;28;2566;-88
2023/08/21 00:29:19;;;;;;;;;;;;;;;17.77;70.16;100650.50;4959453;28;2572;-87
2023/08/21 00:32:12;;;;;;;;;;;;;;;17.77;70.19;100655.97;4969749;28;2643;-87
2023/08/21 00:35:04;;;;;;;;;;;;;;;17.79;70.12;100653.81;4960674;28;2433;-90
2023/08/21 00:37:56;;;;;;;;;;;;;;;17.78;70.06;100652.19;4958461;28;2571;-90
2023/08/21 00:40:49;;;;;;;;;;;;;;;17.77;70.02;100650.50;4959880;28;2343;-89
2023/08/21 00:43:40;;;;;;;;;;;;;;;17.78;70.08;100652.19;4957066;28;2265;-91
2023/08/21 00:46:32;;;;;;;;;;;;;;;17.76;70.17;100649.66;4957846;28;2669;-89
2023/08/21 00:49:24;;;;;;;;;;;;;;;17.77;70.32;100655.97;4963512;28;2374;-87
2023/08/21 00:52:16;;;;;;;;;;;;;;;17.77;70.20;100653.25;4956066;28;2634;-88
2023/08/21 00:55:08;;;;;;;;;;;;;;;17.76;70.03;100660.56;4953834;28;2405;-87
2023/08/21 00:58:00;;;;;;;;;;;;;;;17.76;69.95;100657.84;4956209;28;2519;-88
2023/08/21 01:00:52;;;;;;;;;;;;;;;17.77;70.05;100658.69;4957209;28;2802;-88
2023/08/21 01:03:44;;;;;;;;;;;;;;;17.76;70.14;100655.13;4960338;28;2355;-87
2023/08/21 01:06:36;;;;;;;;;;;;;;;17.75;70.30;100655.41;4969483;28;2350;-87
2023/08/21 01:09:28;;;;;;;;;;;;;;;17.75;70.09;100656.22;4969909;28;2592;-85
2023/08/21 01:12:20;;;;;;;;;;;;;;;17.74;70.18;100649.13;4963312;28;2711;-85
2023/08/21 01:15:13;;;;;;;;;;;;;;;17.75;70.03;100649.94;4962810;28;2506;-87
2023/08/21 01:18:05;;;;;;;;;;;;;;;17.74;70.19;100642.88;4957887;28;2559;-88
2023/08/21 01:20:58;;;;;;;;;;;;;;;17.75;69.95;100644.50;4960990;28;2598;-85
2023/08/21 01:23:49;;;;;;;;;;;;;;;17.70;70.10;100637.94;4955815;28;2562;-86
2023/08/21 01:26:41;;;;;;;;;;;;;;;17.72;70.24;100640.41;4965503;28;2279;-86
2023/08/21 01:29:33;;;;;;;;;;;;;;;17.73;70.04;100639.31;4959545;28;2352;-86
2023/08/21 01:32:25;;;;;;;;;;;;;;;17.70;70.04;100635.22;4957103;28;2317;-84
2023/08/21 01:35:17;;;;;;;;;;;;;;;17.71;70.00;100628.69;4965693;28;2252;-88
2023/08/21 01:38:09;;;;;;;;;;;;;;;17.73;69.98;100636.59;4960056;28;2347;-85
2023/08/21 01:41:01;;;;;;;;;;;;;;;17.73;70.19;100633.84;4961354;28;2560;-87
2023/08/21 01:43:54;;;;;;;;;;;;;;;17.71;69.93;100627.88;4960766;28;2333;-87
2023/08/21 01:46:45;;;;;;;;;;;;;;;17.70;70.22;100632.47;4960169;28;2638;-88
2023/08/21 01:49:37;;;;;;;;;;;;;;;17.70;69.90;100637.94;4964531;28;2401;-84
2023/08/21 01:52:29;;;;;;;;;;;;;;;17.73;69.96;100641.22;4959619;28;2631;-87
2023/08/21 01:55:21;;;;;;;;;;;;;;;17.70;70.13;100634.38;4959988;28;2483;-86
2023/08/21 01:58:13;;;;;;;;;;;;;;;17.72;69.93;100632.22;4958584;28;2583;-86
2023/08/21 02:01:05;;;;;;;;;;;;;;;17.72;69.81;100632.22;4961097;28;2297;-87
2023/08/21 02:03:57;;;;;;;;;;;;;;;17.70;70.11;100629.75;4959975;28;2733;-85
2023/08/21 02:06:49;;;;;;;;;;;;;;;17.69;70.08;100633.56;4973423;28;2412;-87
2023/08/21 02:09:41;;;;;;;;;;;;;;;17.69;69.96;100632.75;4976137;28;1726;-86
2023/08/21 02:12:33;;;;;;;;;;;;;;;17.69;69.72;100627.31;4967020;28;2636;-86
2023/08/21 02:15:25;;;;;;;;;;;;;;;17.69;69.82;100632.75;4960302;28;2575;-87
2023/08/21 02:18:17;;;;;;;;;;;;;;;17.68;69.92;100622.97;4958845;28;2547;-87
2023/08/21 02:21:09;;;;;;;;;;;;;;;17.69;69.97;100630.03;4971991;28;2291;-86
2023/08/21 02:24:01;;;;;;;;;;;;;;;17.69;69.91;100625.41;4968252;28;2460;-85
2023/08/21 02:26:54;;;;;;;;;;;;;;;17.68;70.04;100626.50;4960370;28;2387;-85
2023/08/21 02:29:46;;;;;;;;;;;;;;;17.69;69.88;100632.75;4957816;28;2382;-85
2023/08/21 02:32:40;;;;;;;;;;;;;;;17.69;69.84;100619.97;4966778;28;2578;-87
2023/08/21 02:35:31;;;;;;;;;;;;;;;17.67;69.86;100622.13;4960683;28;2342;-86
2023/08/21 02:38:24;;;;;;;;;;;;;;;17.67;69.80;100624.84;4961849;28;2476;-86
2023/08/21 02:41:18;;;;;;;;;;;;;;;17.66;70.06;100620.50;4960493;28;2403;-88
2023/08/21 02:44:10;;;;;;;;;;;;;;;17.69;69.75;100617.25;4971066;28;2355;-87
2023/08/21 02:47:01;;;;;;;;;;;;;;;17.67;69.82;100611.22;4972215;28;2318;-87
2023/08/21 02:49:53;;;;;;;;;;;;;;;17.69;69.73;100616.41;4959919;28;2567;-87
2023/08/21 02:52:46;;;;;;;;;;;;;;;17.67;70.02;100615.84;4962894;28;2627;-88
2023/08/21 02:55:38;;;;;;;;;;;;;;;17.66;69.76;100620.50;4957801;28;2611;-88
2023/08/21 02:58:29;;;;;;;;;;;;;;;17.67;69.68;100610.41;4962435;28;2571;-87
2023/08/21 03:01:22;;;;;;;;;;;;;;;17.67;69.89;100613.13;4961568;28;2600;-87
2023/08/21 03:04:14;;;;;;;;;;;;;;;17.68;69.71;100614.78;4958988;28;2248;-87
2023/08/21 03:07:06;;;;;;;;;;;;;;;17.64;70.00;100609.03;4964974;28;2424;-87
2023/08/21 03:09:57;;;;;;;;;;;;;;;17.66;69.89;100608.78;4959480;28;2341;-87
2023/08/21 03:12:49;;;;;;;;;;;;;;;17.65;69.64;100612.59;4964122;28;2213;-86
2023/08/21 03:15:42;;;;;;;;;;;;;;;17.66;69.79;100608.78;4956861;28;2654;-86
2023/08/21 03:18:34;;;;;;;;;;;;;;;17.65;69.97;100607.16;4962104;28;2292;-87
2023/08/21 03:21:25;;;;;;;;;;;;;;;17.61;69.97;100603.31;4972307;28;2238;-86
2023/08/21 03:24:18;;;;;;;;;;;;;;;17.64;69.98;100603.59;4961646;28;2327;-86
2023/08/21 03:27:10;;;;;;;;;;;;;;;17.65;69.88;100609.88;4958735;28;2865;-86
2023/08/21 03:30:02;;;;;;;;;;;;;;;17.65;69.56;100610.69;4958655;28;2599;-87
2023/08/21 03:32:53;;;;;;;;;;;;;;;17.64;69.78;100611.75;4964868;28;2327;-85
2023/08/21 03:35:46;;;;;;;;;;;;;;;17.61;69.71;100604.13;4961373;28;2543;-87
2023/08/21 03:38:38;;;;;;;;;;;;;;;17.64;69.75;100605.50;4964120;28;2226;-85
2023/08/21 03:41:30;;;;;;;;;;;;;;;17.67;69.63;100604.97;4959062;28;2590;-85
2023/08/21 03:44:22;;;;;;;;;;;;;;;17.63;69.77;100604.69;4959686;28;2626;-84
2023/08/21 03:47:14;;;;;;;;;;;;;;;17.62;69.59;100591.34;4959223;28;2324;-85
2023/08/21 03:50:06;;;;;;;;;;;;;;;17.67;69.36;100592.16;4956258;28;2682;-86
2023/08/21 03:52:58;;;;;;;;;;;;;;;17.64;69.67;100600.88;4960037;28;2624;-86
2023/08/21 03:55:50;;;;;;;;;;;;;;;17.62;69.42;100600.34;4957031;28;2248;-86
2023/08/21 03:58:42;;;;;;;;;;;;;;;17.61;69.75;100611.47;4960661;28;2504;-88
2023/08/21 04:01:33;;;;;;;;;;;;;;;17.65;69.43;100607.97;4960931;28;2237;-89
2023/08/21 04:04:26;;;;;;;;;;;;;;;17.64;69.46;100611.75;4966676;28;2264;-87
2023/08/21 04:07:18;;;;;;;;;;;;;;;17.65;69.33;100604.44;4973755;28;1516;-87
2023/08/21 04:10:09;;;;;;;;;;;;;;;17.62;69.58;100605.78;4966694;28;1819;-87
2023/08/21 04:13:02;;;;;;;;;;;;;;;17.64;69.38;100594.59;4964886;28;2287;-86
2023/08/21 04:15:54;;;;;;;;;;;;;;;17.62;69.49;100594.88;4958708;28;2617;-86
2023/08/21 04:18:46;;;;;;;;;;;;;;;17.63;69.49;100590.25;4958558;28;2560;-88
2023/08/21 04:21:37;;;;;;;;;;;;;;;17.60;69.72;100594.31;4961257;28;2248;-86
2023/08/21 04:24:30;;;;;;;;;;;;;;;17.61;69.71;100592.41;4961036;28;2332;-86
2023/08/21 04:27:22;;;;;;;;;;;;;;;17.59;69.70;100584.53;4957927;28;2617;-87
2023/08/21 04:30:14;;;;;;;;;;;;;;;17.61;69.63;100574.16;4957354;28;2421;-87
2023/08/21 04:33:07;;;;;;;;;;;;;;;17.59;69.43;100579.06;4960414;28;2329;-87
2023/08/21 04:35:59;;;;;;;;;;;;;;;17.61;69.37;100576.06;4957793;28;2325;-85
2023/08/21 04:38:51;;;;;;;;;;;;;;;17.66;69.14;100574.19;4964534;28;2559;-85
2023/08/21 04:41:42;;;;;;;;;;;;;;;17.63;69.28;100574.72;4960803;28;2678;-87
2023/08/21 04:44:34;;;;;;;;;;;;;;;17.64;69.23;100565.47;4962763;28;2647;-87
2023/08/21 04:47:27;;;;;;;;;;;;;;;17.67;69.05;100572.28;4957409;28;2402;-86
2023/08/21 04:50:18;;;;;;;;;;;;;;;17.68;68.97;100577.47;4961025;28;2638;-87
2023/08/21 04:53:11;;;;;;;;;;;;;;;17.60;69.14;100585.34;4955185;28;2352;-85
2023/08/21 04:56:03;;;;;;;;;;;;;;;17.70;68.93;100586.19;4958106;28;2452;-86
2023/08/21 04:58:54;;;;;;;;;;;;;;;17.73;68.93;100592.19;4960733;28;2411;-87
2023/08/21 05:01:46;;;;;;;;;;;;;;;17.75;68.77;100588.13;4957798;28;2376;-85
2023/08/21 05:04:39;;;;;;;;;;;;;;;17.73;68.76;100586.75;4961157;28;2718;-84
2023/08/21 05:07:31;;;;;;;;;;;;;;;17.67;69.02;100585.91;4969847;28;2254;-87
2023/08/21 05:10:23;;;;;;;;;;;;;;;17.61;69.45;100581.50;4973222;28;1554;-85
2023/08/21 05:13:17;;;;;;;;;;;;;;;17.72;69.03;100583.22;4971224;28;2376;-86
2023/08/21 05:16:08;;;;;;;;;;;;;;;17.74;68.80;100574.78;4964395;28;2259;-86
2023/08/21 05:19:00;;;;;;;;;;;;;;;17.75;68.53;100579.13;4962099;28;2532;-85
2023/08/21 05:21:53;;;;;;;;;;;;;;;17.77;68.54;100576.97;4971243;28;2291;-86
2023/08/21 05:24:44;;;;;;;;;;;;;;;17.74;68.86;100578.31;4976465;28;2584;-86
2023/08/21 05:27:36;;;;;;;;;;;;;;;17.67;68.69;100584.00;4976045;28;1660;-87
2023/08/21 05:30:28;;;;;;;;;;;;;;;17.70;68.87;100583.47;4974636;28;1524;-88
2023/08/21 05:33:20;;;;;;;;;;;;;;;17.72;68.67;100580.47;4972980;28;1457;-85
2023/08/21 05:36:12;;;;;;;;;;;;;;;17.76;68.64;100572.59;4977486;28;1907;-86
2023/08/21 05:39:05;;;;;;;;;;;;;;;17.65;69.23;100582.66;4970707;28;1601;-87
2023/08/21 05:41:56;;;;;;;;;;;;;;;17.63;69.11;100577.44;4980616;28;1460;-87
2023/08/21 05:44:48;;;;;;;;;;;;;;;17.71;68.83;100578.84;4983702;28;1351;-88
2023/08/21 05:47:41;;;;;;;;;;;;;;;17.83;68.48;100570.47;4980601;28;1478;-87
2023/08/21 05:50:32;;;;;;;;;;;;;;;17.74;68.65;100577.50;4982883;28;1455;-86
2023/08/21 05:53:25;;;;;;;;;;;;;;;17.69;68.61;100570.13;4969905;28;1488;-86
2023/08/21 05:56:17;;;;;;;;;;;;;;;17.77;68.58;100579.69;4971912;28;1962;-87
2023/08/21 05:59:09;;;;;;;;;;;;;;;17.84;67.95;100581.09;4971881;28;2331;-87
2023/08/21 06:02:00;;;;;;;;;;;;;;;17.75;68.21;100569.06;4972675;28;2736;-86
2023/08/21 06:04:53;;;;;;;;;;;;;;;17.69;68.57;100586.47;4973386;28;1379;-87
2023/08/21 06:07:44;;;;;;;;;;;;;;;17.81;68.01;100580.81;4973966;28;1604;-87
2023/08/21 06:10:36;;;;;;;;;;;;;;;17.74;68.24;100575.59;4974885;28;1391;-88
2023/08/21 06:13:29;;;;;;;;;;;;;;;17.62;68.92;100570.38;4977066;28;2838;-88
2023/08/21 06:16:21;;;;;;;;;;;;;;;17.67;68.69;100591.34;4973790;28;1918;-87
2023/08/21 06:19:12;;;;;;;;;;;;;;;17.65;68.55;100586.19;4982570;28;1505;-89
2023/08/21 06:22:04;;;;;;;;;;;;;;;17.67;68.42;100583.19;4973473;28;1650;-87
2023/08/21 06:24:56;;;;;;;;;;;;;;;17.64;68.84;100587.25;4978023;28;1604;-87
2023/08/21 06:27:48;;;;;;;;;;;;;;;17.59;68.74;100592.69;4979637;28;2060;-88
2023/08/21 06:30:40;;;;;;;;;;;;;;;17.61;68.95;100595.13;4973449;28;1664;-87
2023/08/21 06:33:32;;;;;;;;;;;;;;;17.53;68.91;100593.75;4975990;28;2061;-87
2023/08/21 06:36:24;;;;;;;;;;;;;;;17.55;68.80;100599.72;4960100;28;2465;-88
2023/08/21 06:39:16;;;;;;;;;;;;;;;17.68;68.37;100604.72;4962556;28;2162;-88
2023/08/21 06:42:08;;;;;;;;;;;;;;;17.62;68.63;100599.53;4973934;28;1983;-87
2023/08/21 06:45:00;;;;;;;;;;;;;;;17.61;68.60;100603.31;4975756;28;1556;-87
2023/08/21 06:47:52;;;;;;;;;;;;;;;17.59;68.94;100609.03;4970929;28;2802;-88
2023/08/21 06:50:44;;;;;;;;;;;;;;;17.58;68.65;100601.09;4958275;28;2263;-87
2023/08/21 06:53:36;;;;;;;;;;;;;;;17.52;69.13;100602.19;4955067;28;2305;-91
2023/08/21 06:56:28;;;;;;;;;;;;;;;17.52;69.11;100605.72;4954383;28;2461;-90
2023/08/21 06:59:20;;;;;;;;;;;;;;;17.59;68.74;100602.75;4954579;28;2211;-89
2023/08/21 07:02:12;;;;;;;;;;;;;;;17.47;69.05;100601.06;4958911;28;2442;-88
2023/08/21 07:05:04;;;;;;;;;;;;;;;17.49;69.19;100601.59;4960340;28;2454;-89
2023/08/21 07:07:56;;;;;;;;;;;;;;;17.45;69.19;100611.41;4955401;28;2586;-91
2023/08/21 07:10:48;;;;;;;;;;;;;;;17.49;69.00;100607.06;4954918;28;2172;-88
2023/08/21 07:13:40;;;;;;;;;;;;;;;17.44;69.18;100603.47;4961083;28;2513;-88
2023/08/21 07:16:32;;;;;;;;;;;;;;;17.41;69.34;100602.13;4962249;28;2166;-89
2023/08/21 07:19:24;;;;;;;;;;;;;;;17.46;69.18;100607.59;4957074;28;2512;-92
2023/08/21 07:22:16;;;;;;;;;;;;;;;17.43;69.44;100607.31;4957477;28;2437;-89
2023/08/21 07:25:08;;;;;;;;;;;;;;;17.38;69.44;100604.53;4956618;28;2690;-91
2023/08/21 07:28:00;;;;;;;;;;;;;;;17.42;69.30;100603.75;4957718;28;2428;-88
2023/08/21 07:30:52;;;;;;;;;;;;;;;17.40;69.53;100610.56;4957252;28;2294;-90
2023/08/21 07:33:44;;;;;;;;;;;;;;;17.38;69.48;100610.84;4958391;28;2630;-89
2023/08/21 07:36:36;;;;;;;;;;;;;;;17.38;69.42;100608.09;4956937;28;2631;-92
2023/08/21 07:39:28;;;;;;;;;;;;;;;17.33;69.69;100601.81;4958701;28;2572;-88
2023/08/21 07:42:20;;;;;;;;;;;;;;;17.35;69.63;100605.06;4962740;28;2668;-89
2023/08/21 07:45:12;;;;;;;;;;;;;;;17.35;69.48;100607.78;4955142;28;2378;-91
2023/08/21 07:48:04;;;;;;;;;;;;;;;17.34;69.52;100600.72;4975472;28;2235;-89
2023/08/21 07:50:56;;;;;;;;;;;;;;;17.34;69.49;100600.72;4958095;28;2259;-91
2023/08/21 07:53:48;;;;;;;;;;;;;;;17.33;69.63;100608.06;4975682;28;1572;-90
2023/08/21 07:56:40;;;;;;;;;;;;;;;17.35;69.63;100607.78;4964878;28;2424;-92
2023/08/21 07:59:32;;;;;;;;;;;;;;;17.34;69.76;100609.69;4956966;28;2262;-92
2023/08/21 08:02:24;;;;;;;;;;;;;;;17.35;69.44;100611.31;4957718;28;2599;-90
2023/08/21 08:05:15;;;;;;;;;;;;;;;17.34;69.51;100617.88;4958117;28;2598;-89
2023/08/21 08:08:07;;;;;;;;;;;;;;;17.35;69.53;100622.22;4968502;28;2275;-89
2023/08/21 08:10:59;;;;;;;;;;;;;;;17.34;69.78;100612.41;4963545;28;2396;-90
2023/08/21 08:13:51;;;;;;;;;;;;;;;17.34;69.76;100615.13;4960310;28;2674;-91
2023/08/21 08:16:43;;;;;;;;;;;;;;;17.34;69.56;100615.13;4967201;28;2281;-92
2023/08/21 08:19:35;;;;;;;;;;;;;;;17.35;69.73;100614.03;4965409;28;2500;-88
2023/08/21 08:22:27;;;;;;;;;;;;;;;17.34;69.63;100611.59;4962156;28;2733;-88
2023/08/21 08:25:19;;;;;;;;;;;;;;;17.35;69.79;100611.31;4962127;28;2509;-87
2023/08/21 08:28:13;;;;;;;;;;;;;;;17.35;69.62;100610.50;4966306;28;2398;-88
2023/08/21 08:31:05;;;;;;;;;;;;;;;17.35;69.64;100618.69;4958283;28;2276;-86
2023/08/21 08:33:57;;;;;;;;;;;;;;;17.35;69.73;100616.78;4960169;28;2515;-88
2023/08/21 08:36:49;;;;;;;;;;;;;;;17.37;69.52;100616.53;4966770;28;2358;-90
2023/08/21 08:39:41;;;;;;;;;;;;;;;17.36;69.56;100617.63;4968471;28;2599;-89
2023/08/21 08:42:33;;;;;;;;;;;;;;;17.35;69.74;100613.22;4961347;28;2618;-90
2023/08/21 08:45:25;;;;;;;;;;;;;;;17.36;69.87;100612.16;4960882;28;2935;-89
2023/08/21 08:48:17;;;;;;;;;;;;;;;17.36;69.77;100610.25;4954809;28;2625;-90
2023/08/21 08:51:09;;;;;;;;;;;;;;;17.35;69.75;100614.03;4952491;28;2599;-89
2023/08/21 08:54:01;;;;;;;;;;;;;;;17.35;69.82;100615.94;4962848;28;2330;-89
2023/08/21 08:56:53;;;;;;;;;;;;;;;17.36;69.86;100617.63;4960657;28;2511;-89
2023/08/21 08:59:45;;;;;;;;;;;;;;;17.36;69.95;100612.16;4960113;28;2653;-91
2023/08/21 09:02:37;;;;;;;;;;;;;;;17.36;69.81;100612.16;4950706;28;2258;-89
2023/08/21 09:05:29;;;;;;;;;;;;;;;17.36;69.86;100610.25;4966733;28;2339;-89
2023/08/21 09:08:20;;;;;;;;;;;;;;;17.36;69.83;100606.72;4960255;28;2284;-88
2023/08/21 09:11:12;;;;;;;;;;;;;;;17.36;69.80;100607.53;4967171;28;2320;-91
2023/08/21 09:14:04;;;;;;;;;;;;;;;17.36;69.86;100604.81;4973013;28;1679;-90
2023/08/21 09:16:56;;;;;;;;;;;;;;;17.37;69.69;100609.16;4972383;28;1763;-91
2023/08/21 09:19:48;;;;;;;;;;;;;;;17.37;69.87;100606.44;4968966;28;1675;-91
2023/08/21 09:22:40;;;;;;;;;;;;;;;17.37;69.70;100602.91;4970710;28;2712;-91
2023/08/21 09:25:32;;;;;;;;;;;;;;;17.37;69.82;100600.19;4971071;28;1644;-90
2023/08/21 09:28:24;;;;;;;;;;;;;;;17.37;69.63;100598.28;4966485;28;2420;-91
2023/08/21 09:31:16;;;;;;;;;;;;;;;17.38;69.62;100608.09;4966595;28;2368;-91
2023/08/21 09:34:08;;;;;;;;;;;;;;;17.39;69.77;100598.84;4978363;28;1490;-94
2023/08/21 09:37:00;;;;;;;;;;;;;;;17.39;69.64;100598.03;4968312;28;1577;-93
2023/08/21 09:39:51;;;;;;;;;;;;;;;17.39;69.84;100598.03;4971879;28;2174;-92
2023/08/21 09:42:44;;;;;;;;;;;;;;;17.38;69.68;100591.78;4964830;28;2618;-91
2023/08/21 09:45:36;;;;;;;;;;;;;;;17.39;69.78;100593.41;4969297;28;1831;-91
2023/08/21 09:48:28;;;;;;;;;;;;;;;17.40;69.92;100597.75;4968424;28;1744;-91
2023/08/21 09:51:20;;;;;;;;;;;;;;;17.39;69.66;100592.59;4973087;28;2090;-93
2023/08/21 09:54:12;;;;;;;;;;;;;;;17.41;69.93;100593.97;4970929;28;2140;-91
2023/08/21 09:57:03;;;;;;;;;;;;;;;17.49;69.69;100601.59;4966851;28;2675;-92
2023/08/21 09:59:56;;;;;;;;;;;;;;;17.39;70.24;100598.03;4970073;28;2616;-91
2023/08/21 10:02:48;;;;;;;;;;;;;;;17.37;70.15;100600.19;4975738;28;1747;-90
2023/08/21 10:05:40;;;;;;;;;;;;;;;17.37;70.24;100598.28;4975555;28;2245;-92
2023/08/21 10:08:32;;;;;;;;;;;;;;;17.38;70.31;100599.94;4976188;28;2244;-93
2023/08/21 10:11:24;;;;;;;;;;;;;;;17.39;70.16;100593.41;4973051;28;1554;-93
2023/08/21 10:14:16;;;;;;;;;;;;;;;17.40;70.23;100600.47;4970472;28;1498;-94
2023/08/21 10:17:08;;;;;;;;;;;;;;;17.42;70.01;100594.78;4980478;28;1693;-92
2023/08/21 10:19:59;;;;;;;;;;;;;;;17.43;70.25;100607.31;4973954;28;2848;-93
2023/08/21 10:22:51;;;;;;;;;;;;;;;17.44;70.24;100596.16;4981792;28;2206;-90
2023/08/21 10:25:43;;;;;;;;;;;;;;;17.35;70.13;100578.66;4971903;28;1564;-90
2023/08/21 10:28:34;;;;;;;;;;;;;;;17.44;70.10;100590.72;4973146;28;1544;-92
2023/08/21 10:31:26;;;;;;;;;;;;;;;17.46;70.17;100593.97;4967827;28;2241;-91
2023/08/21 10:34:18;;;;;;;;;;;;;;;17.46;70.18;100585.81;4972932;28;2861;-92
2023/08/21 10:37:13;;;;;;;;;;;;;;;17.47;70.34;100592.06;4981181;28;1539;-90
2023/08/21 10:40:08;;;;;;;;;;;;;;;17.47;70.33;100592.91;4975455;28;2205;-90
2023/08/21 10:43:01;;;;;;;;;;;;;;;17.48;70.18;100588.28;4974505;28;1615;-90
2023/08/21 10:45:53;;;;;;;;;;;;;;;17.49;70.33;100589.91;4974272;28;1984;-91
2023/08/21 10:48:45;;;;;;;;;;;;;;;17.48;70.33;100586.38;4973586;28;1638;-92
2023/08/21 10:51:36;;;;;;;;;;;;;;;17.50;70.15;100594.28;4966804;28;1559;-91
2023/08/21 10:54:29;;;;;;;;;;;;;;;17.52;70.27;100586.66;4973136;28;1395;-93
2023/08/21 10:57:21;;;;;;;;;;;;;;;17.52;70.14;100588.56;4972769;28;2109;-94
2023/08/21 11:00:13;;;;;;;;;;;;;;;17.52;70.14;100583.94;4974528;28;1638;-89
2023/08/21 11:03:05;;;;;;;;;;;;;;;17.52;70.13;100581.22;4976711;28;1548;-92
2023/08/21 11:05:57;;;;;;;;;;;;;;;17.54;70.36;100586.41;4978839;28;2038;-89
2023/08/21 11:08:49;;;;;;;;;;;;;;;17.56;70.14;100589.66;4980062;28;1655;-93
2023/08/21 11:11:41;;;;;;;;;;;;;;;17.56;70.32;100593.22;4982590;28;1387;-92
2023/08/21 11:14:33;;;;;;;;;;;;;;;17.57;70.36;100592.13;4975271;28;1586;-93
2023/08/21 11:17:25;;;;;;;;;;;;;;;17.58;70.21;100596.47;4975113;28;2136;-90
2023/08/21 11:20:17;;;;;;;;;;;;;;;17.58;70.50;100592.94;4985393;28;2567;-94
2023/08/21 11:23:09;;;;;;;;;;;;;;;17.59;70.42;100600.03;4978238;28;2083;-92
2023/08/21 11:26:01;;;;;;;;;;;;;;;17.60;70.63;100588.88;4977669;28;1608;-94
2023/08/21 11:28:53;;;;;;;;;;;;;;;17.60;70.30;100588.06;4980829;28;1635;-91
2023/08/21 11:31:45;;;;;;;;;;;;;;;17.63;70.48;100595.69;4971819;28;1756;-92
2023/08/21 11:34:37;;;;;;;;;;;;;;;17.64;70.41;100595.41;4975384;28;1720;-91
2023/08/21 11:37:29;;;;;;;;;;;;;;;17.64;70.26;100589.16;4972327;28;1643;-93
2023/08/21 11:40:20;;;;;;;;;;;;;;;17.65;70.40;100596.25;4976672;28;1542;-93
2023/08/21 11:43:12;;;;;;;;;;;;;;;17.66;70.58;100587.00;4982275;28;2072;-93
2023/08/21 11:46:04;;;;;;;;;;;;;;;17.67;70.55;100594.06;4984212;28;1451;-93
2023/08/21 11:48:56;;;;;;;;;;;;;;;17.67;70.62;100600.34;4972252;28;1965;-93
2023/08/21 11:51:48;;;;;;;;;;;;;;;17.67;70.74;100589.44;4977133;28;1555;-89
2023/08/21 11:54:40;;;;;;;;;;;;;;;17.69;70.48;100592.72;4981397;28;1580;-94
2023/08/21 11:57:32;;;;;;;;;;;;;;;17.71;70.50;100592.47;4982224;28;1394;-90
2023/08/21 12:00:24;;;;;;;;;;;;;;;17.71;70.54;100592.47;4974217;28;1567;-92
2023/08/21 12:03:16;;;;;;;;;;;;;;;17.73;70.68;100593.00;4976335;28;3129;-92
2023/08/21 12:06:08;;;;;;;;;;;;;;;17.74;70.60;100589.22;4964005;28;2346;-92
2023/08/21 12:09:00;;;;;;;;;;;;;;;17.74;70.63;100591.94;4970362;28;2545;-92
2023/08/21 12:11:52;;;;;;;;;;;;;;;17.75;70.59;100587.31;4964388;28;2849;-92
2023/08/21 12:14:44;;;;;;;;;;;;;;;17.77;70.56;100593.31;4966128;28;2388;-94
2023/08/21 12:17:36;;;;;;;;;;;;;;;17.78;70.64;100605.88;4982019;28;1574;-92
2023/08/21 12:20:28;;;;;;;;;;;;;;;17.79;71.04;100602.06;4974883;28;1620;-93
2023/08/21 12:23:20;;;;;;;;;;;;;;;17.80;70.73;100595.53;4978527;28;2009;-92
2023/08/21 12:26:18;;;;;;;;;;;;;;;17.80;70.76;100599.06;5176247;23;5031;-93
2023/08/21 12:31:30;;;;;;;;;;;;;;;17.82;70.77;100587.91;4940900;29;1703;-94
2023/08/21 12:33:56;;;;;;;;;;;;;;;17.83;70.79;100595.81;4938602;29;1655;-91
2023/08/21 12:36:48;;;;;;;;;;;;;;;17.84;70.84;100592.00;4942966;29;2822;-92
2023/08/21 12:39:40;;;;;;;;;;;;;;;17.85;70.70;100598.25;4930247;29;2285;-91
2023/08/21 12:42:32;;;;;;;;;;;;;;;17.86;70.81;100587.09;4931501;29;2433;-92
2023/08/21 12:45:24;;;;;;;;;;;;;;;17.87;70.76;100590.66;4930193;29;2259;-92
2023/08/21 12:48:16;;;;;;;;;;;;;;;17.88;70.80;100590.38;4932958;29;2147;-94
2023/08/21 12:51:08;;;;;;;;;;;;;;;17.89;70.74;100591.22;4939221;29;1671;-93
2023/08/21 12:54:00;;;;;;;;;;;;;;;17.90;71.11;100584.66;4942702;29;1826;-94
2023/08/21 12:56:53;;;;;;;;;;;;;;;17.91;71.13;100586.28;4935829;29;1793;-92
2023/08/21 12:59:45;;;;;;;;;;;;;;;17.93;70.92;100589.56;4933971;29;2227;-92
2023/08/21 13:02:37;;;;;;;;;;;;;;;17.93;70.99;100584.94;4934254;29;2341;-89
2023/08/21 13:05:29;;;;;;;;;;;;;;;17.95;71.08;100589.31;4936491;29;2676;-91
2023/08/21 13:08:21;;;;;;;;;;;;;;;17.95;70.84;100572.97;4940118;29;1660;-92
2023/08/21 13:11:15;;;;;;;;;;;;;;;17.96;70.90;100583.59;4940221;29;1668;-94
2023/08/21 13:14:07;;;;;;;;;;;;;;;17.96;70.97;100572.69;4942604;29;1596;-93
2023/08/21 13:16:58;;;;;;;;;;;;;;;17.98;71.03;100575.97;4952335;28;1533;-93
2023/08/21 13:19:50;;;;;;;;;;;;;;;17.98;71.38;100575.97;4949289;29;1978;-94
2023/08/21 13:22:42;;;;;;;;;;;;;;;17.99;70.89;100574.88;4942313;29;1784;-92
2023/08/21 13:25:34;;;;;;;;;;;;;;;18.01;71.08;100572.72;4936004;29;2041;-93
2023/08/21 13:28:26;;;;;;;;;;;;;;;18.03;71.49;100575.16;4959810;28;2321;-94
2023/08/21 13:31:18;;;;;;;;;;;;;;;18.02;71.05;100568.88;4966903;28;1670;-90
2023/08/21 13:34:10;;;;;;;;;;;;;;;18.04;71.35;100569.44;4961861;28;1806;-93
2023/08/21 13:37:02;;;;;;;;;;;;;;;18.05;71.24;100564.81;4963828;28;1684;-91
2023/08/21 13:39:55;;;;;;;;;;;;;;;18.06;71.13;100561.84;4962909;28;1959;-92
2023/08/21 13:42:47;;;;;;;;;;;;;;;18.08;71.10;100553.38;4960733;28;1685;-92
2023/08/21 13:45:39;;;;;;;;;;;;;;;18.09;71.26;100544.13;4959308;28;2207;-86
2023/08/21 13:48:31;;;;;;;;;;;;;;;18.10;71.04;100553.94;4954346;28;2416;-91
2023/08/21 13:51:23;;;;;;;;;;;;;;;18.11;71.29;100550.09;4957253;28;2270;-91
2023/08/21 13:54:15;;;;;;;;;;;;;;;18.13;71.28;100547.94;4950841;28;2525;-92
2023/08/21 13:57:07;;;;;;;;;;;;;;;18.14;71.14;100555.81;4951431;28;2575;-92
2023/08/21 13:59:59;;;;;;;;;;;;;;;18.15;71.27;100556.66;4934823;28;2599;-86
2023/08/21 14:02:51;;;;;;;;;;;;;;;18.16;71.17;100564.56;4961746;28;2173;-90
2023/08/21 14:05:43;;;;;;;;;;;;;;;18.17;71.38;100563.47;4959784;28;1643;-92
2023/08/21 14:08:35;;;;;;;;;;;;;;;18.17;71.39;100552.56;4957610;28;1927;-90
2023/08/21 14:11:27;;;;;;;;;;;;;;;18.19;71.20;100552.31;4956512;28;1623;-93
2023/08/21 14:14:19;;;;;;;;;;;;;;;18.21;71.43;100558.31;4957934;28;1713;-92
2023/08/21 14:17:11;;;;;;;;;;;;;;;18.22;71.52;100554.50;4966948;28;1634;-91
2023/08/21 14:20:03;;;;;;;;;;;;;;;18.25;71.54;100555.84;4955871;28;1981;-93
2023/08/21 14:22:55;;;;;;;;;;;;;;;18.25;71.48;100553.94;4963572;28;1697;-92
2023/08/21 14:25:47;;;;;;;;;;;;;;;18.26;71.65;100555.56;4969498;28;1625;-92
2023/08/21 14:28:39;;;;;;;;;;;;;;;18.26;71.50;100558.31;4963257;29;1733;-93
2023/08/21 14:31:32;;;;;;;;;;;;;;;18.27;71.52;100554.50;4959375;28;1722;-93
2023/08/21 14:34:24;;;;;;;;;;;;;;;18.30;71.66;100564.06;4965349;29;1638;-94
2023/08/21 14:37:17;;;;;;;;;;;;;;;18.31;71.44;100549.31;4959825;29;1665;-92
2023/08/21 14:40:09;;;;;;;;;;;;;;;18.32;71.45;100557.25;4958602;28;1906;-94
2023/08/21 14:43:01;;;;;;;;;;;;;;;18.33;71.74;100552.59;4958695;29;1708;-92
2023/08/21 14:45:57;;;;;;;;;;;;;;;18.35;71.66;100555.84;4966364;29;1674;-92
2023/08/21 14:48:49;;;;;;;;;;;;;;;18.35;71.53;100553.13;4959022;29;1856;-89
2023/08/21 14:51:41;;;;;;;;;;;;;;;18.37;71.51;100549.03;4961108;29;1707;-88
2023/08/21 14:54:33;;;;;;;;;;;;;;;18.38;71.80;100541.69;4950206;28;2208;-92
2023/08/21 14:57:25;;;;;;;;;;;;;;;18.39;71.73;100544.16;4956680;28;2709;-86